Grifon 5 — UGMI — position and weather

sailwx.info

Track history (hours):
 
Tides and Currents Weather Stations Pressure Air Temp Water Temp Dewpoint Dewpoint Depression Visibility Wind Speed Wind Dir Waves Ship Positions

Grifon 5

Last reported at 2014-Sep-16 22:32 UTC. Time now 2014-Sep-16 23:33 UTC.
Position N 59°53' E 030°14'.

Length 25 m.

MMSI: 273311070.

Date/timePositionNaut miles runAvg speedWind from/ knotsBaromVisibWave heightAir tempDewpointWater temp
2014-Sep-16 22:32N 59°53' E 030°14'0 0.0
2014-Sep-16 21:29N 59°53' E 030°14'0 0.0
2014-Sep-16 20:33N 59°53' E 030°14'0 0.0
2014-Sep-16 19:33N 59°53' E 030°14'0 0.0
2014-Sep-16 18:33N 59°53' E 030°14'0 0.0
2014-Sep-16 17:32N 59°53' E 030°14'0 0.0
2014-Sep-16 16:33N 59°53' E 030°14'0 0.0
2014-Sep-16 13:06N 59°53' E 030°14'0 0.0
2014-Sep-16 11:25N 59°53' E 030°14'0 0.0
2014-Sep-16 10:21N 59°53' E 030°14'1 0.4
2014-Sep-16 06:29N 59°53' E 030°11'1 1.5
2014-Sep-16 05:33N 59°53' E 030°14'0 0.0
2014-Sep-16 04:32N 59°53' E 030°14'0 0.0
2014-Sep-16 03:32N 59°53' E 030°14'0 0.0
2014-Sep-16 02:33N 59°53' E 030°14'0 0.0
2014-Sep-16 01:33N 59°53' E 030°14'0 0.0
2014-Sep-16 00:33N 59°53' E 030°14'0 0.0
2014-Sep-15 23:33N 59°53' E 030°14'0 0.0
2014-Sep-15 22:33N 59°53' E 030°14'0 0.0
2014-Sep-15 21:33N 59°53' E 030°14'0 0.0
2014-Sep-15 20:33N 59°53' E 030°14'0 0.0
2014-Sep-15 19:33N 59°53' E 030°14'0 0.0
2014-Sep-15 18:33N 59°53' E 030°14'0 0.0
2014-Sep-15 17:28N 59°53' E 030°14'0 0.0
2014-Sep-15 16:33N 59°53' E 030°14'0 0.0
2014-Sep-15 15:32N 59°53' E 030°14'0 0.0
2014-Sep-15 13:27N 59°53' E 030°14'0 0.0
2014-Sep-15 11:24N 59°53' E 030°14'0 0.0
2014-Sep-15 10:27N 59°53' E 030°14'0 0.0
2014-Sep-15 04:33N 59°53' E 030°14'0 0.0
2014-Sep-15 03:33N 59°53' E 030°14'0 0.0
2014-Sep-15 02:33N 59°53' E 030°14'0 0.0
2014-Sep-15 01:33N 59°53' E 030°14'0 0.0
2014-Sep-15 00:33N 59°53' E 030°14'0 0.0
2014-Sep-14 23:32N 59°53' E 030°14'0 0.0
2014-Sep-14 22:33N 59°53' E 030°14'0 0.0
2014-Sep-14 21:32N 59°53' E 030°14'0 0.0
2014-Sep-14 20:33N 59°53' E 030°14'0 0.0
2014-Sep-14 19:33N 59°53' E 030°14'0 0.0
2014-Sep-14 18:33N 59°53' E 030°14'0 0.0
2014-Sep-14 17:33N 59°53' E 030°14'0 0.0
2014-Sep-14 16:33N 59°53' E 030°14'1 0.1
2014-Sep-14 07:32N 59°53' E 030°13'1 0.4
2014-Sep-14 05:30N 59°53' E 030°14'0 0.0
2014-Sep-14 04:30N 59°53' E 030°14'0 0.0
2014-Sep-14 03:33N 59°53' E 030°14'0 0.0
2014-Sep-14 02:33N 59°53' E 030°14'0 0.0
2014-Sep-14 01:33N 59°53' E 030°14'0 0.0
2014-Sep-13 21:31N 59°53' E 030°14'0 0.0
2014-Sep-13 20:33N 59°53' E 030°14'0 0.0
2014-Sep-13 19:33N 59°53' E 030°14'0 0.0
2014-Sep-13 18:33N 59°53' E 030°14'0 0.0
2014-Sep-13 17:32N 59°53' E 030°14'0 0.0
2014-Sep-13 16:26N 59°53' E 030°14'0 0.0
2014-Sep-13 15:33N 59°53' E 030°14'0 0.0
2014-Sep-13 14:33N 59°53' E 030°14'0 0.0
2014-Sep-13 13:29N 59°53' E 030°14'0 0.0
2014-Sep-13 12:23N 59°53' E 030°14'0 0.0
2014-Sep-13 11:29N 59°53' E 030°14'0 0.0
2014-Sep-13 06:25N 59°53' E 030°14'0 0.0
2014-Sep-13 05:33N 59°53' E 030°14'0 0.0
2014-Sep-13 04:33N 59°53' E 030°14'0 0.0
2014-Sep-13 03:33N 59°53' E 030°14'0 0.0
2014-Sep-13 02:31N 59°53' E 030°14'0 0.0
2014-Sep-13 01:32N 59°53' E 030°14'0 0.0
2014-Sep-13 00:32N 59°53' E 030°14'0 0.0
2014-Sep-12 23:32N 59°53' E 030°14'0 0.0
2014-Sep-12 22:33N 59°53' E 030°14'0 0.0
2014-Sep-12 21:33N 59°53' E 030°14'1 0.8
2014-Sep-12 20:31N 59°53' E 030°13'1 0.8
2014-Sep-12 19:32N 59°53' E 030°14'0 0.0
2014-Sep-12 18:32N 59°53' E 030°14'3 0.2
2014-Sep-12 01:33N 59°54' E 030°09'3 1.2
2014-Sep-11 23:22N 59°53' E 030°14'0 0.0
2014-Sep-11 22:33N 59°53' E 030°14'0 0.0
2014-Sep-11 21:32N 59°53' E 030°14'0 0.0
2014-Sep-11 20:32N 59°53' E 030°14'0 0.0
2014-Sep-11 19:34N 59°53' E 030°14'0 0.0
2014-Sep-11 18:34N 59°53' E 030°14'0 0.0
2014-Sep-11 13:33N 59°53' E 030°14'0 0.0
2014-Sep-11 04:24N 59°53' E 030°14'0 0.0
2014-Sep-11 03:32N 59°53' E 030°14'0 0.0
2014-Sep-11 02:33N 59°53' E 030°14'0 0.0
2014-Sep-11 01:33N 59°53' E 030°14'0 0.0
2014-Sep-11 00:33N 59°53' E 030°14'0 0.0
2014-Sep-10 23:33N 59°53' E 030°14'0 0.0
2014-Sep-10 22:33N 59°53' E 030°14'0 0.0
2014-Sep-10 21:33N 59°53' E 030°14'0 0.0
2014-Sep-10 20:32N 59°53' E 030°14'0 0.0
2014-Sep-10 18:31N 59°53' E 030°14'0 0.0
2014-Sep-10 05:07N 59°53' E 030°14'0 0.0
2014-Sep-10 04:33N 59°53' E 030°14'0 0.0
2014-Sep-10 00:17N 59°53' E 030°14'0 0.0
2014-Sep-09 23:15N 59°53' E 030°14'0 0.0
2014-Sep-09 22:28N 59°53' E 030°14'0 0.0
2014-Sep-09 07:32N 59°53' E 030°14'0 0.0
2014-Sep-09 06:32N 59°53' E 030°14'0 0.0
2014-Sep-09 05:32N 59°53' E 030°14'0 0.0
2014-Sep-09 04:33N 59°53' E 030°14'0 0.0
2014-Sep-09 03:33N 59°53' E 030°14'0 0.0
2014-Sep-09 02:33N 59°53' E 030°14'0 0.0
2014-Sep-09 01:33N 59°53' E 030°14'0 0.0
2014-Sep-09 00:33N 59°53' E 030°14'0 0.0
2014-Sep-08 23:33N 59°53' E 030°14'0 0.0
2014-Sep-08 22:33N 59°53' E 030°14'0 0.0
2014-Sep-08 21:33N 59°53' E 030°14'0 0.0
2014-Sep-08 20:33N 59°53' E 030°14'0 0.0
2014-Sep-08 19:33N 59°53' E 030°14'0 0.0
2014-Sep-08 13:20N 59°53' E 030°14'0 0.0
2014-Sep-08 12:33N 59°53' E 030°14'0 0.0
2014-Sep-08 08:21N 59°53' E 030°14'0 0.0
2014-Sep-08 07:30N 59°53' E 030°14'0 0.0
2014-Sep-08 06:17N 59°53' E 030°14'0 0.0
2014-Sep-08 05:30N 59°53' E 030°14'0 0.0
2014-Sep-08 04:24N 59°53' E 030°14'0 0.0
2014-Sep-08 03:17N 59°53' E 030°14'0 0.0
2014-Sep-08 02:32N 59°53' E 030°14'0 0.0
2014-Sep-08 01:30N 59°53' E 030°14'0 0.0
2014-Sep-07 23:22N 59°53' E 030°14'0 0.0
2014-Sep-07 21:27N 59°53' E 030°14'0 0.0
2014-Sep-07 20:21N 59°53' E 030°14'0 0.0
2014-Sep-07 19:31N 59°53' E 030°14'0 0.0
2014-Sep-07 18:29N 59°53' E 030°14'  
Track history (hours):
 
Tides and Currents Weather Stations Pressure Air Temp Water Temp Dewpoint Dewpoint Depression Visibility Wind Speed Wind Dir Waves Ship Positions

Grifon 5

Last reported at 2014-Sep-16 22:32 UTC. Time now 2014-Sep-16 23:33 UTC.
Position N 59°53' E 030°14'.

Length 25 m.

MMSI: 273311070.

Date/timePositionNaut miles runAvg speedWind from/ knotsBaromVisibWave heightAir tempDewpointWater temp
2014-Sep-16 22:32N 59°53' E 030°14'0 0.0
2014-Sep-16 21:29N 59°53' E 030°14'0 0.0
2014-Sep-16 20:33N 59°53' E 030°14'0 0.0
2014-Sep-16 19:33N 59°53' E 030°14'0 0.0
2014-Sep-16 18:33N 59°53' E 030°14'0 0.0
2014-Sep-16 17:32N 59°53' E 030°14'0 0.0
2014-Sep-16 16:33N 59°53' E 030°14'0 0.0
2014-Sep-16 13:06N 59°53' E 030°14'0 0.0
2014-Sep-16 11:25N 59°53' E 030°14'0 0.0
2014-Sep-16 10:21N 59°53' E 030°14'1 0.4
2014-Sep-16 06:29N 59°53' E 030°11'1 1.5
2014-Sep-16 05:33N 59°53' E 030°14'0 0.0
2014-Sep-16 04:32N 59°53' E 030°14'0 0.0
2014-Sep-16 03:32N 59°53' E 030°14'0 0.0
2014-Sep-16 02:33N 59°53' E 030°14'0 0.0
2014-Sep-16 01:33N 59°53' E 030°14'0 0.0
2014-Sep-16 00:33N 59°53' E 030°14'0 0.0
2014-Sep-15 23:33N 59°53' E 030°14'0 0.0
2014-Sep-15 22:33N 59°53' E 030°14'0 0.0
2014-Sep-15 21:33N 59°53' E 030°14'0 0.0
2014-Sep-15 20:33N 59°53' E 030°14'0 0.0
2014-Sep-15 19:33N 59°53' E 030°14'0 0.0
2014-Sep-15 18:33N 59°53' E 030°14'0 0.0
2014-Sep-15 17:28N 59°53' E 030°14'0 0.0
2014-Sep-15 16:33N 59°53' E 030°14'0 0.0
2014-Sep-15 15:32N 59°53' E 030°14'0 0.0
2014-Sep-15 13:27N 59°53' E 030°14'0 0.0
2014-Sep-15 11:24N 59°53' E 030°14'0 0.0
2014-Sep-15 10:27N 59°53' E 030°14'0 0.0
2014-Sep-15 04:33N 59°53' E 030°14'0 0.0
2014-Sep-15 03:33N 59°53' E 030°14'0 0.0
2014-Sep-15 02:33N 59°53' E 030°14'0 0.0
2014-Sep-15 01:33N 59°53' E 030°14'0 0.0
2014-Sep-15 00:33N 59°53' E 030°14'0 0.0
2014-Sep-14 23:32N 59°53' E 030°14'0 0.0
2014-Sep-14 22:33N 59°53' E 030°14'0 0.0
2014-Sep-14 21:32N 59°53' E 030°14'0 0.0
2014-Sep-14 20:33N 59°53' E 030°14'0 0.0
2014-Sep-14 19:33N 59°53' E 030°14'0 0.0
2014-Sep-14 18:33N 59°53' E 030°14'0 0.0
2014-Sep-14 17:33N 59°53' E 030°14'0 0.0
2014-Sep-14 16:33N 59°53' E 030°14'1 0.1
2014-Sep-14 07:32N 59°53' E 030°13'1 0.4
2014-Sep-14 05:30N 59°53' E 030°14'0 0.0
2014-Sep-14 04:30N 59°53' E 030°14'0 0.0
2014-Sep-14 03:33N 59°53' E 030°14'0 0.0
2014-Sep-14 02:33N 59°53' E 030°14'0 0.0
2014-Sep-14 01:33N 59°53' E 030°14'0 0.0
2014-Sep-13 21:31N 59°53' E 030°14'0 0.0
2014-Sep-13 20:33N 59°53' E 030°14'0 0.0
2014-Sep-13 19:33N 59°53' E 030°14'0 0.0
2014-Sep-13 18:33N 59°53' E 030°14'0 0.0
2014-Sep-13 17:32N 59°53' E 030°14'0 0.0
2014-Sep-13 16:26N 59°53' E 030°14'0 0.0
2014-Sep-13 15:33N 59°53' E 030°14'0 0.0
2014-Sep-13 14:33N 59°53' E 030°14'0 0.0
2014-Sep-13 13:29N 59°53' E 030°14'0 0.0
2014-Sep-13 12:23N 59°53' E 030°14'0 0.0
2014-Sep-13 11:29N 59°53' E 030°14'0 0.0
2014-Sep-13 06:25N 59°53' E 030°14'0 0.0
2014-Sep-13 05:33N 59°53' E 030°14'0 0.0
2014-Sep-13 04:33N 59°53' E 030°14'0 0.0
2014-Sep-13 03:33N 59°53' E 030°14'0 0.0
2014-Sep-13 02:31N 59°53' E 030°14'0 0.0
2014-Sep-13 01:32N 59°53' E 030°14'0 0.0
2014-Sep-13 00:32N 59°53' E 030°14'0 0.0
2014-Sep-12 23:32N 59°53' E 030°14'0 0.0
2014-Sep-12 22:33N 59°53' E 030°14'0 0.0
2014-Sep-12 21:33N 59°53' E 030°14'1 0.8
2014-Sep-12 20:31N 59°53' E 030°13'1 0.8
2014-Sep-12 19:32N 59°53' E 030°14'0 0.0
2014-Sep-12 18:32N 59°53' E 030°14'3 0.2
2014-Sep-12 01:33N 59°54' E 030°09'3 1.2
2014-Sep-11 23:22N 59°53' E 030°14'0 0.0
2014-Sep-11 22:33N 59°53' E 030°14'0 0.0
2014-Sep-11 21:32N 59°53' E 030°14'0 0.0
2014-Sep-11 20:32N 59°53' E 030°14'0 0.0
2014-Sep-11 19:34N 59°53' E 030°14'0 0.0
2014-Sep-11 18:34N 59°53' E 030°14'0 0.0
2014-Sep-11 13:33N 59°53' E 030°14'0 0.0
2014-Sep-11 04:24N 59°53' E 030°14'0 0.0
2014-Sep-11 03:32N 59°53' E 030°14'0 0.0
2014-Sep-11 02:33N 59°53' E 030°14'0 0.0
2014-Sep-11 01:33N 59°53' E 030°14'0 0.0
2014-Sep-11 00:33N 59°53' E 030°14'0 0.0
2014-Sep-10 23:33N 59°53' E 030°14'0 0.0
2014-Sep-10 22:33N 59°53' E 030°14'0 0.0
2014-Sep-10 21:33N 59°53' E 030°14'0 0.0
2014-Sep-10 20:32N 59°53' E 030°14'0 0.0
2014-Sep-10 18:31N 59°53' E 030°14'0 0.0
2014-Sep-10 05:07N 59°53' E 030°14'0 0.0
2014-Sep-10 04:33N 59°53' E 030°14'0 0.0
2014-Sep-10 00:17N 59°53' E 030°14'0 0.0
2014-Sep-09 23:15N 59°53' E 030°14'0 0.0
2014-Sep-09 22:28N 59°53' E 030°14'0 0.0
2014-Sep-09 07:32N 59°53' E 030°14'0 0.0
2014-Sep-09 06:32N 59°53' E 030°14'0 0.0
2014-Sep-09 05:32N 59°53' E 030°14'0 0.0
2014-Sep-09 04:33N 59°53' E 030°14'0 0.0
2014-Sep-09 03:33N 59°53' E 030°14'0 0.0
2014-Sep-09 02:33N 59°53' E 030°14'0 0.0
2014-Sep-09 01:33N 59°53' E 030°14'0 0.0
2014-Sep-09 00:33N 59°53' E 030°14'0 0.0
2014-Sep-08 23:33N 59°53' E 030°14'0 0.0
2014-Sep-08 22:33N 59°53' E 030°14'0 0.0
2014-Sep-08 21:33N 59°53' E 030°14'0 0.0
2014-Sep-08 20:33N 59°53' E 030°14'0 0.0
2014-Sep-08 19:33N 59°53' E 030°14'0 0.0
2014-Sep-08 13:20N 59°53' E 030°14'0 0.0
2014-Sep-08 12:33N 59°53' E 030°14'0 0.0
2014-Sep-08 08:21N 59°53' E 030°14'0 0.0
2014-Sep-08 07:30N 59°53' E 030°14'0 0.0
2014-Sep-08 06:17N 59°53' E 030°14'0 0.0
2014-Sep-08 05:30N 59°53' E 030°14'0 0.0
2014-Sep-08 04:24N 59°53' E 030°14'0 0.0
2014-Sep-08 03:17N 59°53' E 030°14'0 0.0
2014-Sep-08 02:32N 59°53' E 030°14'0 0.0
2014-Sep-08 01:30N 59°53' E 030°14'0 0.0
2014-Sep-07 23:22N 59°53' E 030°14'0 0.0
2014-Sep-07 21:27N 59°53' E 030°14'0 0.0
2014-Sep-07 20:21N 59°53' E 030°14'0 0.0
2014-Sep-07 19:31N 59°53' E 030°14'0 0.0
2014-Sep-07 18:29N 59°53' E 030°14'  

Dump ship's entire track history